Time;durP1;ratioP1;P1;durP2;ratioP2;P2;SDS_P1;SDS_P2;PMS_P1;PMS_P2;Temp;Humidity;BMP_temperature;BMP_pressure;BME280_temperature;BME280_humidity;BME280_pressure;Samples;Min_cycle;Max_cycle;Signal;HPM_P1;HPM_P2
2021/10/12 00:02:11;;;;;;;8.20;3.20;;;;;;;6.67;nan;101059.34;4991041;28;21021;-81
2021/10/12 00:04:38;;;;;;;5.97;2.07;;;;;;;6.66;nan;101048.84;4971776;28;20049;-82
2021/10/12 00:07:06;;;;;;;7.83;1.80;;;;;;;6.66;nan;101054.97;4983389;28;20038;-81
2021/10/12 00:09:33;;;;;;;4.23;1.67;;;;;;;6.62;nan;101063.72;4993721;28;20518;-81
2021/10/12 00:12:00;;;;;;;5.00;1.90;;;;;;;6.64;nan;101063.72;4974850;28;20042;-81
2021/10/12 00:14:27;;;;;;;5.50;1.70;;;;;;;6.61;nan;101058.47;4991650;28;20521;-82
2021/10/12 00:16:54;;;;;;;5.10;1.93;;;;;;;6.65;nan;101047.97;4973347;28;20046;-80
2021/10/12 00:19:24;;;;;;;7.20;2.07;;;;;;;6.72;nan;101054.97;4983785;28;20031;-82
2021/10/12 00:21:51;;;;;;;4.03;1.80;;;;;;;6.68;nan;101055.84;4988794;28;20488;-81
2021/10/12 00:24:18;;;;;;;4.37;2.07;;;;;;;6.70;nan;101045.34;4990917;28;20042;-81
2021/10/12 00:26:45;;;;;;;4.67;2.07;;;;;;;6.73;nan;101037.50;4958953;28;20046;-82
2021/10/12 00:29:12;;;;;;;4.53;1.60;;;;;;;6.70;nan;101037.47;4972016;28;20125;-82
2021/10/12 00:31:39;;;;;;;5.30;1.83;;;;;;;6.60;nan;101035.72;4990260;28;20034;-82
2021/10/12 00:34:06;;;;;;;2.67;1.70;;;;;;;6.57;nan;101036.59;4971639;28;20073;-82
2021/10/12 00:36:33;;;;;;;3.33;1.70;;;;;;;6.53;nan;101037.44;4968599;28;20407;-81
2021/10/12 00:39:02;;;;;;;4.47;1.73;;;;;;;6.53;nan;101029.56;4973146;28;20035;-82
2021/10/12 00:41:29;;;;;;;5.40;2.07;;;;;;;6.48;nan;101020.81;4973574;28;20098;-82
2021/10/12 00:43:56;;;;;;;5.70;1.63;;;;;;;6.48;nan;101020.81;4966755;28;20057;-81
2021/10/12 00:46:23;;;;;;;5.30;1.60;;;;;;;6.45;nan;101034.78;4974621;28;20053;-81
2021/10/12 00:48:51;;;;;;;4.40;1.70;;;;;;;6.43;nan;101028.69;4967930;28;20035;-82
2021/10/12 00:51:18;;;;;;;5.73;1.90;;;;;;;6.42;nan;101021.69;4971623;28;20054;-81
2021/10/12 00:53:45;;;;;;;6.07;1.90;;;;;;;6.39;nan;101015.53;4971160;28;20535;-81
2021/10/12 00:56:12;;;;;;;7.97;2.83;;;;;;;6.42;nan;101007.69;4995738;28;20043;-82
2021/10/12 00:58:40;;;;;;;6.10;2.10;;;;;;;6.38;nan;101009.41;4971782;28;20057;-81
2021/10/12 01:01:07;;;;;;;5.10;2.00;;;;;;;6.40;nan;101004.19;4984594;28;20042;-81
2021/10/12 01:03:34;;;;;;;8.63;2.00;;;;;;;6.56;nan;101005.06;4983096;28;20043;-82
2021/10/12 01:06:01;;;;;;;6.90;2.07;;;;;;;6.43;nan;101012.06;4991520;28;20041;-82
2021/10/12 01:08:28;;;;;;;7.17;2.03;;;;;;;6.48;nan;101021.69;5055642;23;20052;-82
2021/10/12 01:10:55;;;;;;;4.40;2.03;;;;;;;6.43;nan;101015.56;4984625;28;20413;-82
2021/10/12 01:13:22;;;;;;;4.57;2.00;;;;;;;6.35;nan;101021.66;4986556;28;20038;-82
2021/10/12 01:15:50;;;;;;;3.20;1.50;;;;;;;6.26;nan;101017.25;4998964;28;20042;-83
2021/10/12 01:18:17;;;;;;;7.50;2.27;;;;;;;6.21;nan;101004.13;4998499;28;20042;-82
2021/10/12 01:20:45;;;;;;;4.80;1.50;;;;;;;6.20;nan;100999.75;4980311;28;20509;-82
2021/10/12 01:23:13;;;;;;;3.73;1.67;;;;;;;6.17;nan;100998.88;4980897;28;20523;-81
2021/10/12 01:25:40;;;;;;;4.33;2.30;;;;;;;6.14;nan;100997.13;4979358;28;20050;-82
2021/10/12 01:28:10;;;;;;;5.83;1.80;;;;;;;6.13;nan;100987.47;4999536;28;20050;-82
2021/10/12 01:30:38;;;;;;;7.77;2.50;;;;;;;6.11;nan;100993.59;4980862;28;20103;-82
2021/10/12 01:33:06;;;;;;;9.37;2.60;;;;;;;6.10;nan;100982.22;4979858;28;20041;-82
2021/10/12 01:35:34;;;;;;;9.53;2.83;;;;;;;6.10;nan;100970.88;4959201;28;20041;-81
2021/10/12 01:38:01;;;;;;;3.83;2.00;;;;;;;6.08;nan;100972.63;4971923;28;20050;-81
2021/10/12 01:40:28;;;;;;;8.43;2.10;;;;;;;6.15;nan;100961.28;4983577;28;20030;-82
2021/10/12 01:42:56;;;;;;;7.73;3.03;;;;;;;6.23;nan;100962.16;4976179;28;20044;-82
2021/10/12 01:45:27;;;;;;;5.97;1.80;;;;;;;6.16;nan;100949.91;4996273;28;20038;-81
2021/10/12 01:47:54;;;;;;;5.67;2.00;;;;;;;6.15;nan;100956.03;4966360;28;20026;-82
2021/10/12 01:50:21;;;;;;;4.73;1.93;;;;;;;6.18;nan;100954.28;4966547;28;20029;-81
2021/10/12 01:52:48;;;;;;;9.07;2.60;;;;;;;6.14;nan;100938.53;4974590;28;20037;-82
2021/10/12 01:55:17;;;;;;;5.90;2.23;;;;;;;6.19;nan;100945.53;4951075;28;20050;-82
2021/10/12 01:57:44;;;;;;;5.43;1.90;;;;;;;6.13;nan;100939.38;4990233;28;20441;-82
2021/10/12 02:00:12;;;;;;;5.40;2.27;;;;;;;6.15;nan;100935.03;4958976;28;20052;-83
2021/10/12 02:02:39;;;;;;;4.80;2.17;;;;;;;6.13;nan;100926.28;4983636;28;20494;-82
2021/10/12 02:05:06;;;;;;;11.47;2.33;;;;;;;6.08;nan;100921.03;4958321;28;20443;-82
2021/10/12 02:07:33;;;;;;;5.37;2.20;;;;;;;6.09;nan;100917.53;4965100;28;20494;-82
2021/10/12 02:10:00;;;;;;;4.97;1.83;;;;;;;6.08;nan;100921.03;4965350;28;20041;-82
2021/10/12 02:12:29;;;;;;;6.20;2.10;;;;;;;6.06;nan;100925.41;4968304;28;20056;-82
2021/10/12 02:14:57;;;;;;;7.23;2.77;;;;;;;6.10;nan;100921.91;4976388;28;20048;-82
2021/10/12 02:17:24;;;;;;;5.23;1.73;;;;;;;6.08;nan;100918.41;5002013;28;20045;-83
2021/10/12 02:19:50;;;;;;;7.50;2.30;;;;;;;6.17;nan;100920.19;4962539;28;20042;-83
2021/10/12 02:22:17;;;;;;;5.83;2.90;;;;;;;6.17;nan;100907.94;4986316;28;20448;-82
2021/10/12 02:24:44;;;;;;;5.43;2.10;;;;;;;6.14;nan;100905.31;4972436;28;20058;-82
2021/10/12 02:27:11;;;;;;;7.20;2.13;;;;;;;6.09;nan;100895.69;4998042;28;20048;-82
2021/10/12 02:29:38;;;;;;;8.37;2.00;;;;;;;6.10;nan;100892.19;4985493;28;20041;-83
2021/10/12 02:32:05;;;;;;;5.63;2.00;;;;;;;6.12;nan;100890.44;4992031;28;20499;-82
2021/10/12 02:34:32;;;;;;;6.30;2.10;;;;;;;6.16;nan;100877.31;4975813;28;20517;-83
2021/10/12 02:36:59;;;;;;;10.83;2.23;;;;;;;6.10;nan;100866.81;4949277;28;20050;-82
2021/10/12 02:39:27;;;;;;;8.30;2.37;;;;;;;6.07;nan;100866.81;4990329;28;20041;-82
2021/10/12 02:41:53;;;;;;;4.97;1.87;;;;;;;6.11;nan;100860.69;4955520;28;20050;-82
2021/10/12 02:44:20;;;;;;;5.23;2.20;;;;;;;6.07;nan;100855.47;4953509;28;20551;-82
2021/10/12 02:46:48;;;;;;;5.57;1.90;;;;;;;6.07;nan;100858.97;4972159;28;20484;-82
2021/10/12 02:49:15;;;;;;;5.53;2.17;;;;;;;6.04;nan;100866.81;4981349;28;20038;-82
2021/10/12 02:51:42;;;;;;;10.07;2.83;;;;;;;6.03;nan;100859.81;4994258;28;20033;-83
2021/10/12 02:54:09;;;;;;;5.27;2.30;;;;;;;6.08;nan;100868.56;4991093;28;20092;-82
2021/10/12 02:56:36;;;;;;;6.93;2.07;;;;;;;6.16;nan;100869.47;4968234;28;20045;-82
2021/10/12 02:59:03;;;;;;;5.37;2.57;;;;;;;6.10;nan;100876.44;4976263;28;20041;-82
2021/10/12 03:01:30;;;;;;;11.57;3.53;;;;;;;6.12;nan;100872.94;4955728;28;20042;-82
2021/10/12 03:03:58;;;;;;;4.97;2.30;;;;;;;6.17;nan;100868.59;4982085;28;20051;-82
2021/10/12 03:06:25;;;;;;;6.07;2.10;;;;;;;6.20;nan;100859.81;4997173;28;20042;-82
2021/10/12 03:08:56;;;;;;;5.37;2.37;;;;;;;6.28;nan;100859.84;4970568;28;20053;-81
2021/10/12 03:11:23;;;;;;;8.67;2.70;;;;;;;6.37;nan;100860.69;4988063;28;20735;-83
2021/10/12 03:13:50;;;;;;;5.67;2.43;;;;;;;6.34;nan;100850.22;4973531;28;20041;-83
2021/10/12 03:16:17;;;;;;;10.07;2.80;;;;;;;6.56;nan;100835.34;4971241;28;20048;-84
2021/10/12 03:18:44;;;;;;;5.27;2.20;;;;;;;6.50;nan;100843.22;4973970;28;20060;-84
2021/10/12 03:21:13;;;;;;;5.20;2.30;;;;;;;6.56;nan;100842.31;4975709;28;20031;-84
2021/10/12 03:23:40;;;;;;;8.27;3.70;;;;;;;6.55;nan;100827.44;4967325;28;20050;-85
2021/10/12 03:26:07;;;;;;;6.47;2.63;;;;;;;6.52;nan;100837.97;4963171;28;20044;-85
2021/10/12 03:28:34;;;;;;;8.90;3.10;;;;;;;6.53;nan;100834.47;4995155;28;20042;-84
2021/10/12 03:31:01;;;;;;;5.17;2.50;;;;;;;6.50;nan;100822.22;4979380;28;20038;-83
2021/10/12 03:33:28;;;;;;;6.53;3.13;;;;;;;6.57;nan;100813.47;4995524;28;20048;-84
2021/10/12 03:36:00;;;;;;;9.73;3.20;;;;;;;6.66;nan;100810.81;4973587;28;20064;-83
2021/10/12 03:38:28;;;;;;;6.97;3.10;;;;;;;6.65;nan;100805.56;4961835;28;20046;-84
2021/10/12 03:40:55;;;;;;;8.30;2.70;;;;;;;6.66;nan;100799.44;4986457;28;20034;-84
2021/10/12 03:43:23;;;;;;;11.90;4.17;;;;;;;6.74;nan;100795.06;4992224;28;20511;-84
2021/10/12 03:45:50;;;;;;;6.27;3.43;;;;;;;6.78;nan;100796.78;4977643;28;20050;-84
2021/10/12 03:48:17;;;;;;;7.87;3.37;;;;;;;6.80;nan;100791.50;4999557;28;20034;-84
2021/10/12 03:50:44;;;;;;;5.87;2.40;;;;;;;6.75;nan;100795.03;4979003;28;20034;-85
2021/10/12 03:53:11;;;;;;;7.63;2.97;;;;;;;6.87;nan;100790.63;5010626;28;20052;-84
2021/10/12 03:55:38;;;;;;;6.90;3.70;;;;;;;6.84;nan;100791.50;4969732;28;20050;-86
2021/10/12 03:58:05;;;;;;;11.17;3.07;;;;;;;6.82;nan;100777.53;4990045;28;20050;-85
2021/10/12 04:00:32;;;;;;;7.97;3.23;;;;;;;6.86;nan;100767.88;4971516;28;20164;-86
2021/10/12 04:02:59;;;;;;;9.23;3.60;;;;;;;6.94;nan;100777.47;4977315;28;20072;-84
2021/10/12 04:05:27;;;;;;;7.40;3.57;;;;;;;6.91;nan;100779.25;4956989;28;20054;-83
2021/10/12 04:07:54;;;;;;;6.13;3.33;;;;;;;6.87;nan;100769.59;4977435;28;20046;-85
2021/10/12 04:10:21;;;;;;;9.00;3.10;;;;;;;6.90;nan;100767.00;4976946;28;20026;-85
2021/10/12 04:12:48;;;;;;;5.30;2.90;;;;;;;6.79;nan;100761.75;4994504;28;20513;-85
2021/10/12 04:15:15;;;;;;;9.20;3.83;;;;;;;6.88;nan;100740.72;4978924;28;20050;-85
2021/10/12 04:17:42;;;;;;;7.13;3.43;;;;;;;6.90;nan;100741.59;4976079;28;20046;-84
2021/10/12 04:20:09;;;;;;;10.43;4.03;;;;;;;6.84;nan;100733.75;4976442;28;20038;-85
2021/10/12 04:22:36;;;;;;;7.03;3.37;;;;;;;6.84;nan;100739.00;4946642;28;20398;-84
2021/10/12 04:25:04;;;;;;;6.63;3.83;;;;;;;7.00;nan;100737.19;4975976;28;20048;-84
2021/10/12 04:27:31;;;;;;;4.83;2.60;;;;;;;6.92;nan;100741.59;4982599;28;20042;-84
2021/10/12 04:29:58;;;;;;;5.00;3.10;;;;;;;6.95;nan;100736.31;4994642;28;20521;-84
2021/10/12 04:32:25;;;;;;;6.47;3.17;;;;;;;6.94;nan;100726.69;4980186;28;20044;-84
2021/10/12 04:34:52;;;;;;;6.80;3.73;;;;;;;6.92;nan;100725.84;4986268;28;20033;-85
2021/10/12 04:37:20;;;;;;;6.23;2.80;;;;;;;6.86;nan;100720.59;4969436;28;20034;-84
2021/10/12 04:39:47;;;;;;;5.53;3.20;;;;;;;6.85;nan;100726.72;4978182;28;20042;-84
2021/10/12 04:42:14;;;;;;;8.77;3.93;;;;;;;6.84;nan;100727.63;4994171;28;20048;-84
2021/10/12 04:44:41;;;;;;;7.80;3.30;;;;;;;6.84;nan;100725.88;4979061;28;20030;-85
2021/10/12 04:47:11;;;;;;;6.53;2.87;;;;;;;6.78;nan;100720.63;4975058;28;20050;-84
2021/10/12 04:49:38;;;;;;;9.30;5.33;;;;;;;6.77;nan;100729.38;5003277;28;20057;-84
2021/10/12 04:52:05;;;;;;;6.07;2.83;;;;;;;6.74;nan;100717.16;4975886;28;20041;-84
2021/10/12 04:54:32;;;;;;;7.90;3.00;;;;;;;6.75;nan;100724.16;4952297;28;20423;-85
2021/10/12 04:56:59;;;;;;;4.63;2.50;;;;;;;6.71;nan;100727.66;4990757;28;20521;-84
2021/10/12 04:59:28;;;;;;;6.10;3.10;;;;;;;6.69;nan;100737.28;4963462;28;20038;-84
2021/10/12 05:01:55;;;;;;;5.10;2.70;;;;;;;6.73;nan;100743.41;4972472;28;20030;-84
2021/10/12 05:04:23;;;;;;;4.70;2.73;;;;;;;6.64;nan;100739.06;4986854;28;20046;-84
2021/10/12 05:06:49;;;;;;;5.37;2.97;;;;;;;6.63;nan;100732.06;4989126;28;20050;-84
2021/10/12 05:09:16;;;;;;;6.23;2.97;;;;;;;6.64;nan;100728.56;4977446;28;20541;-84
2021/10/12 05:11:43;;;;;;;4.83;2.73;;;;;;;6.70;nan;100718.03;4977486;28;20044;-85
2021/10/12 05:14:10;;;;;;;6.27;3.07;;;;;;;6.71;nan;100706.66;4977297;28;20040;-85
2021/10/12 05:16:37;;;;;;;4.73;2.87;;;;;;;6.69;nan;100721.53;4986695;28;20042;-85
2021/10/12 05:19:04;;;;;;;5.30;2.83;;;;;;;6.70;nan;100717.16;4977455;28;20042;-86
2021/10/12 05:21:32;;;;;;;5.20;2.23;;;;;;;6.74;nan;100709.28;4980571;28;20030;-85
2021/10/12 05:23:59;;;;;;;7.17;2.13;;;;;;;6.82;nan;100711.00;4995825;28;20690;-84
2021/10/12 05:26:26;;;;;;;3.90;2.20;;;;;;;6.74;nan;100705.78;4961955;28;20050;-84
2021/10/12 05:28:53;;;;;;;3.90;2.00;;;;;;;6.82;nan;100706.63;4975996;28;20434;-86
2021/10/12 05:31:21;;;;;;;3.43;1.90;;;;;;;6.75;nan;100700.50;4977846;28;20048;-85
2021/10/12 05:33:49;;;;;;;4.10;2.07;;;;;;;6.80;nan;100699.59;4976306;28;20041;-84
2021/10/12 05:36:16;;;;;;;4.73;1.97;;;;;;;6.81;nan;100697.00;4992666;28;20056;-84
2021/10/12 05:38:45;;;;;;;6.27;2.40;;;;;;;6.83;nan;100703.13;4978985;28;20055;-86
2021/10/12 05:41:13;;;;;;;5.20;2.20;;;;;;;6.73;nan;100699.66;4994985;28;20041;-82
2021/10/12 05:43:40;;;;;;;2.80;1.93;;;;;;;6.72;nan;100705.75;4989628;28;20515;-84
2021/10/12 05:46:07;;;;;;;5.47;2.17;;;;;;;6.66;nan;100702.31;5002380;28;20042;-83
2021/10/12 05:48:34;;;;;;;4.97;2.03;;;;;;;6.71;nan;100697.91;4994751;28;20045;-84
2021/10/12 05:51:01;;;;;;;6.60;2.00;;;;;;;6.77;nan;100698.75;4993053;28;20048;-83
2021/10/12 05:53:39;;;;;;;5.20;2.30;;;;;;;6.90;nan;100711.84;4970944;28;20046;-83
2021/10/12 05:56:08;;;;;;;3.50;1.90;;;;;;;6.97;nan;100710.91;4980948;28;20049;-84
2021/10/12 06:01:35;;;;;;;5.47;1.90;;;;;;;6.90;nan;100703.97;4992087;28;20049;-85
2021/10/12 06:04:02;;;;;;;7.53;2.77;;;;;;;6.97;nan;100705.66;5000732;28;20033;-86
2021/10/12 06:06:29;;;;;;;3.00;2.13;;;;;;;6.99;nan;100699.53;4970815;28;20046;-85
2021/10/12 06:08:56;;;;;;;3.73;1.80;;;;;;;7.00;nan;100695.16;5001069;28;20056;-84
2021/10/12 06:11:23;;;;;;;3.70;1.70;;;;;;;7.03;nan;100690.75;4995988;28;20060;-84
2021/10/12 06:13:52;;;;;;;2.70;1.90;;;;;;;6.99;nan;100689.03;5000568;28;20044;-82
2021/10/12 06:16:19;;;;;;;2.30;1.60;;;;;;;6.99;nan;100686.41;5003020;28;20039;-79
2021/10/12 06:18:46;;;;;;;4.57;2.03;;;;;;;6.99;nan;100683.78;4987207;28;20042;-80
2021/10/12 06:21:13;;;;;;;3.30;1.83;;;;;;;7.02;nan;100685.50;4978602;28;20662;-79
2021/10/12 06:23:40;;;;;;;16.27;11.30;;;;;;;6.94;nan;100687.28;5009115;28;20055;-79
2021/10/12 06:26:07;;;;;;;7.50;5.23;;;;;;;6.96;nan;100693.41;5008544;28;20034;-80
2021/10/12 06:28:34;;;;;;;9.93;6.07;;;;;;;7.08;nan;100693.34;4994447;28;20044;-79
2021/10/12 06:31:01;;;;;;;4.10;2.40;;;;;;;7.13;nan;100696.81;5002681;28;20042;-81
2021/10/12 06:33:29;;;;;;;5.80;3.47;;;;;;;7.22;nan;100696.75;4990014;28;20046;-81
2021/10/12 06:35:56;;;;;;;67.03;60.13;;;;;;;7.37;nan;100689.66;4963345;28;20051;-81
2021/10/12 06:38:23;;;;;;;9.47;8.47;;;;;;;7.36;nan;100703.69;4994612;28;20194;-81
2021/10/12 06:40:52;;;;;;;5.20;3.40;;;;;;;7.36;nan;100695.81;4972129;28;20057;-82
2021/10/12 06:43:19;;;;;;;16.60;10.80;;;;;;;7.42;nan;100701.03;4974191;28;20084;-81
2021/10/12 06:45:46;;;;;;;4.33;2.10;;;;;;;7.47;nan;100692.19;4985255;28;20285;-81
2021/10/12 06:48:13;;;;;;;4.40;3.97;;;;;;;7.45;nan;100701.88;4985287;28;20061;-81
2021/10/12 06:50:40;;;;;;;4.20;2.10;;;;;;;7.50;nan;100697.47;4973447;28;20038;-80
2021/10/12 06:53:10;;;;;;;4.10;1.85;;;;;;;7.61;nan;100695.59;4984418;28;20410;-81
2021/10/12 06:55:37;;;;;;;3.28;1.58;;;;;;;7.55;nan;100697.41;5005630;28;20417;-81
2021/10/12 06:58:05;;;;;;;5.57;4.90;;;;;;;7.61;nan;100694.75;4993088;28;20045;-80
2021/10/12 07:00:33;;;;;;;3.08;1.80;;;;;;;7.62;nan;100701.75;4980720;28;20064;-80
2021/10/12 07:03:00;;;;;;;3.97;1.90;;;;;;;7.59;nan;100699.16;4994995;28;20048;-80
2021/10/12 07:05:27;;;;;;;4.15;2.05;;;;;;;7.60;nan;100691.25;4996992;28;20042;-80
2021/10/12 07:07:54;;;;;;;4.23;1.90;;;;;;;7.66;nan;100698.22;4977368;28;20497;-80
2021/10/12 07:10:21;;;;;;;2.60;1.60;;;;;;;7.74;nan;100685.00;4997325;28;20041;-80
2021/10/12 07:12:49;;;;;;;2.45;1.50;;;;;;;7.82;nan;100694.56;5013517;28;20025;-80
2021/10/12 07:15:16;;;;;;;2.95;1.60;;;;;;;7.84;nan;100690.16;4994356;28;20065;-81
2021/10/12 07:17:43;;;;;;;3.70;3.40;;;;;;;7.80;nan;100695.44;4978407;28;20048;-81
2021/10/12 07:20:10;;;;;;;3.42;1.60;;;;;;;7.78;nan;100689.34;4969302;28;20046;-81
2021/10/12 07:22:37;;;;;;;2.88;1.77;;;;;;;7.83;nan;100685.78;4972613;28;20037;-80
2021/10/12 07:25:06;;;;;;;3.10;1.50;;;;;;;7.75;nan;100697.28;4993196;28;20041;-81
2021/10/12 07:27:34;;;;;;;3.20;1.60;;;;;;;7.86;nan;100691.03;4961271;28;20038;-80
2021/10/12 07:30:17;;;;;;;2.93;1.47;;;;;;;7.79;nan;100691.09;4979269;28;20503;-80
2021/10/12 07:32:43;;;;;;;2.73;1.50;;;;;;;7.76;nan;100688.50;4991824;28;20045;-81
2021/10/12 07:35:11;;;;;;;2.53;1.20;;;;;;;7.88;nan;100693.63;4992424;28;20040;-82
2021/10/12 07:37:40;;;;;;;8.00;3.83;;;;;;;7.92;nan;100695.38;4975046;28;20056;-81
2021/10/12 07:40:09;;;;;;;6.68;3.70;;;;;;;7.87;nan;100695.38;4991448;28;20076;-81
2021/10/12 07:42:36;;;;;;;2.97;2.28;;;;;;;7.86;nan;100696.28;4972968;28;20398;-80
2021/10/12 07:45:04;;;;;;;4.70;2.43;;;;;;;7.89;nan;100700.63;4982000;28;20515;-81
2021/10/12 07:47:31;;;;;;;4.80;2.27;;;;;;;7.99;nan;100696.16;4988439;28;20398;-81
2021/10/12 07:49:58;;;;;;;2.70;1.55;;;;;;;7.95;nan;100702.34;4989362;28;20394;-81
2021/10/12 07:52:25;;;;;;;2.33;1.63;;;;;;;7.95;nan;100699.72;4989339;28;20437;-81
2021/10/12 07:55:02;;;;;;;2.43;1.50;;;;;;;8.05;nan;100686.44;4977066;28;20046;-81
2021/10/12 07:57:29;;;;;;;2.93;1.60;;;;;;;8.10;nan;100689.06;4989208;28;20030;-81
2021/10/12 07:59:56;;;;;;;2.63;1.45;;;;;;;8.11;nan;100682.91;4987282;28;20046;-81
2021/10/12 08:02:23;;;;;;;3.08;1.48;;;;;;;8.16;nan;100689.00;4974279;28;20475;-81
2021/10/12 08:04:50;;;;;;;2.08;1.50;;;;;;;8.13;nan;100674.09;4975256;28;20048;-81
2021/10/12 08:07:17;;;;;;;6.10;5.15;;;;;;;8.36;nan;100678.28;4978658;28;20048;-81
2021/10/12 08:09:44;;;;;;;2.20;1.75;;;;;;;8.35;nan;100679.16;4978866;28;20046;-81
2021/10/12 08:12:11;;;;;;;2.50;1.83;;;;;;;8.41;nan;100674.72;4987418;28;20702;-80
2021/10/12 08:14:42;;;;;;;3.75;1.83;;;;;;;8.52;nan;100674.59;4989074;28;20042;-80
2021/10/12 08:17:09;;;;;;;2.85;1.52;;;;;;;8.45;nan;100670.28;4986305;28;20046;-80
2021/10/12 08:19:36;;;;;;;2.70;1.60;;;;;;;8.36;nan;100673.00;4973070;28;20545;-81
2021/10/12 08:22:03;;;;;;;2.25;1.58;;;;;;;8.32;nan;100669.50;4987554;28;20076;-81
2021/10/12 08:24:31;;;;;;;3.55;1.80;;;;;;;8.46;nan;100666.75;4978209;28;20069;-80
2021/10/12 08:26:58;;;;;;;4.35;2.20;;;;;;;8.36;nan;100673.00;4990886;28;20060;-80
2021/10/12 08:29:27;;;;;;;4.80;1.90;;;;;;;8.34;nan;100664.25;4971702;28;20798;-80
2021/10/12 08:31:54;;;;;;;4.43;2.42;;;;;;;8.40;nan;100662.41;4987673;28;20120;-81
2021/10/12 08:34:21;;;;;;;3.17;2.13;;;;;;;8.45;nan;100665.88;4986450;28;20046;-81
2021/10/12 08:36:48;;;;;;;4.63;2.53;;;;;;;8.50;nan;100663.22;5005078;28;20041;-81
2021/10/12 08:39:16;;;;;;;4.20;1.80;;;;;;;8.51;nan;100667.56;4987817;28;20038;-80
2021/10/12 08:41:51;;;;;;;3.72;2.42;;;;;;;8.54;nan;100659.63;4972726;28;20490;-81
2021/10/12 08:44:18;;;;;;;5.70;1.92;;;;;;;8.74;nan;100662.00;4987833;28;20041;-80
2021/10/12 08:46:47;;;;;;;2.67;1.40;;;;;;;8.87;nan;100658.34;5003569;28;20034;-82
2021/10/12 08:49:14;;;;;;;3.80;2.35;;;;;;;8.87;nan;100668.00;4989567;28;20061;-84
2021/10/12 08:51:43;;;;;;;2.90;1.88;;;;;;;8.80;nan;100661.06;4958394;28;20406;-81
2021/10/12 08:54:14;;;;;;;3.80;2.08;;;;;;;8.90;nan;100660.91;4988734;28;20209;-83
2021/10/12 08:56:41;;;;;;;3.10;1.95;;;;;;;8.94;nan;100657.34;4978393;28;20052;-81
2021/10/12 08:59:08;;;;;;;2.80;2.08;;;;;;;9.15;nan;100657.94;4958676;28;20068;-82
2021/10/12 09:01:57;;;;;;;4.47;2.03;;;;;;;9.18;nan;100648.22;4973707;28;20458;-82
2021/10/12 09:04:36;;;;;;;2.22;1.77;;;;;;;9.63;nan;100643.13;4972518;28;20036;-82
2021/10/12 09:07:03;;;;;;;2.83;1.80;;;;;;;9.90;nan;100633.84;4955900;28;20046;-83
2021/10/12 09:09:35;;;;;;;3.97;1.55;;;;;;;10.19;nan;100633.31;4972023;28;21774;-80
2021/10/12 09:12:03;;;;;;;4.35;1.90;;;;;;;10.39;nan;100632.94;5002865;28;20038;-80
2021/10/12 09:14:30;;;;;;;3.10;1.95;;;;;;;10.77;nan;100639.22;4972725;28;20044;-80
2021/10/12 09:17:05;;;;;;;3.15;1.75;;;;;;;10.76;nan;100633.03;4990053;28;20036;-80
2021/10/12 09:19:34;;;;;;;1.67;1.42;;;;;;;10.78;nan;100636.53;4986591;28;20049;-80
2021/10/12 09:22:04;;;;;;;3.13;1.30;;;;;;;10.69;nan;100636.72;4986487;28;20038;-79
2021/10/12 09:24:39;;;;;;;2.03;1.40;;;;;;;10.54;nan;100635.28;4984580;28;20042;-80
2021/10/12 09:27:10;;;;;;;2.28;1.40;;;;;;;10.48;nan;100634.53;4985807;28;20054;-80
2021/10/12 09:32:06;;;;;;;2.22;1.17;;;;;;;10.20;nan;100631.53;4985357;28;20033;-80
2021/10/12 09:34:35;;;;;;;2.40;1.45;;;;;;;10.18;nan;100618.38;4985725;28;20041;-80
2021/10/12 09:37:03;;;;;;;2.72;1.70;;;;;;;10.20;nan;100624.50;4969452;28;20042;-81
2021/10/12 09:39:32;;;;;;;2.17;1.73;;;;;;;10.31;nan;100617.25;5002268;28;20918;-80
2021/10/12 09:42:02;;;;;;;4.10;1.45;;;;;;;10.50;nan;100623.00;4983825;28;20045;-80
2021/10/12 09:44:30;;;;;;;2.10;1.80;;;;;;;10.77;nan;100613.66;5004774;28;20036;-79
2021/10/12 09:47:11;;;;;;;3.20;1.52;;;;;;;10.69;nan;100621.75;4986307;28;20042;-79
2021/10/12 09:49:39;;;;;;;3.08;1.65;;;;;;;10.71;nan;100619.06;4985854;28;20078;-80
2021/10/12 09:52:12;;;;;;;2.08;1.45;;;;;;;10.84;nan;100625.81;4999498;28;20038;-80
2021/10/12 09:54:47;;;;;;;2.15;1.58;;;;;;;11.05;nan;100618.31;4986761;28;20048;-79
2021/10/12 09:57:15;;;;;;;2.38;1.52;;;;;;;11.30;nan;100623.91;5002910;28;20050;-80
2021/10/12 09:59:43;;;;;;;2.47;1.40;;;;;;;11.49;nan;100610.16;4987595;28;20034;-80
2021/10/12 10:02:18;;;;;;;5.53;1.90;;;;;;;11.58;nan;100606.44;5060213;23;20049;-77
2021/10/12 10:04:46;;;;;;;2.22;1.40;;;;;;;11.60;nan;100604.59;4958510;28;20523;-79
2021/10/12 10:07:17;;;;;;;7.32;1.42;;;;;;;11.63;nan;100604.53;4990708;28;20046;-77
2021/10/12 10:09:47;;;;;;;3.05;1.67;;;;;;;11.57;nan;100602.91;4967986;28;20039;-78
2021/10/12 10:12:15;;;;;;;3.15;1.48;;;;;;;11.62;nan;100604.59;4955508;28;20491;-78
2021/10/12 10:14:42;;;;;;;4.20;1.80;;;;;;;11.52;nan;100602.19;4973168;28;20042;-79
2021/10/12 10:17:09;;;;;;;2.97;1.67;;;;;;;11.43;nan;100606.81;4956040;28;20056;-79
2021/10/12 10:19:41;;;;;;;3.13;1.40;;;;;;;11.30;nan;100614.19;4957170;28;20038;-81
2021/10/12 10:22:08;;;;;;;2.20;1.30;;;;;;;11.15;nan;100604.84;4977974;28;20034;-79
2021/10/12 10:24:41;;;;;;;2.03;1.20;;;;;;;11.21;nan;100602.06;4962684;28;20038;-79
2021/10/12 10:27:28;;;;;;;1.45;1.20;;;;;;;10.82;nan;100601.19;4988339;28;20064;-80
2021/10/12 10:30:14;;;;;;;2.72;1.02;;;;;;;11.23;nan;100597.59;4975570;28;20410;-79
2021/10/12 10:32:58;;;;;;;2.97;1.33;;;;;;;11.41;nan;100590.09;4964940;28;20061;-79
2021/10/12 10:35:35;;;;;;;;;;;;;;;11.46;nan;100593.53;4984451;28;20043;-80
2021/10/12 10:38:20;;;;;;;1.48;1.02;;;;;;;11.24;nan;100604.63;4986932;28;20302;-80
2021/10/12 10:40:48;;;;;;;2.17;1.20;;;;;;;11.11;nan;100599.66;5003697;28;20042;-79
2021/10/12 10:43:15;;;;;;;5.05;1.48;;;;;;;10.97;nan;100598.22;4964013;28;20052;-80
2021/10/12 10:45:51;;;;;;;1.38;1.20;;;;;;;10.66;nan;100608.59;4974452;28;20037;-79
2021/10/12 10:48:22;;;;;;;3.80;2.05;;;;;;;10.53;nan;100608.91;4982701;28;20056;-79
2021/10/12 10:51:22;;;;;;;2.50;1.10;;;;;;;10.48;nan;100597.53;4973467;28;20056;-79
2021/10/12 10:53:49;;;;;;;2.50;1.45;;;;;;;10.66;nan;100594.50;4995680;28;20030;-80
2021/10/12 10:56:16;;;;;;;5.30;1.38;;;;;;;10.88;nan;100585.22;4976872;28;20031;-79
2021/10/12 10:58:43;;;;;;;2.17;1.10;;;;;;;11.10;nan;100588.22;4981767;28;20042;-78
2021/10/12 11:01:33;;;;;;;1.90;1.10;;;;;;;11.06;nan;100588.31;4987900;28;20506;-79
2021/10/12 11:04:00;;;;;;;1.67;1.15;;;;;;;11.05;nan;100592.75;4965830;28;20527;-79
2021/10/12 11:06:30;;;;;;;2.33;1.30;;;;;;;11.23;nan;100586.16;4966175;28;20034;-79
2021/10/12 11:08:59;;;;;;;1.35;1.15;;;;;;;11.46;nan;100580.28;4988225;28;20041;-80
2021/10/12 11:11:34;;;;;;;1.98;1.30;;;;;;;11.71;nan;100568.16;4974743;28;20042;-79
2021/10/12 11:14:03;;;;;;;1.45;1.08;;;;;;;11.97;nan;100569.28;4954753;28;20054;-79
2021/10/12 11:16:34;;;;;;;2.05;1.10;;;;;;;12.34;nan;100563.78;4976310;28;21690;-80
2021/10/12 11:19:03;;;;;;;2.50;1.00;;;;;;;12.60;nan;100555.06;4964400;28;20042;-79
2021/10/12 11:21:33;;;;;;;1.77;1.00;;;;;;;12.84;nan;100570.19;4981339;28;20048;-79
2021/10/12 11:24:02;;;;;;;3.15;1.58;;;;;;;12.87;nan;100556.00;4966783;28;20409;-78
2021/10/12 11:26:30;;;;;;;0.85;0.75;;;;;;;12.81;nan;100554.41;4979969;28;20038;-80
2021/10/12 11:28:59;;;;;;;1.77;0.70;;;;;;;12.66;nan;100553.09;4969209;28;20042;-79
2021/10/12 11:31:29;;;;;;;1.00;0.90;;;;;;;12.51;nan;100556.19;4949532;28;20038;-80
2021/10/12 11:33:58;;;;;;;2.78;1.20;;;;;;;12.10;nan;100554.75;4977212;28;20036;-79
2021/10/12 11:36:28;;;;;;;1.73;1.00;;;;;;;12.00;nan;100554.16;4959126;28;20050;-81
2021/10/12 11:39:00;;;;;;;4.07;1.10;;;;;;;11.91;nan;100548.25;4983216;28;20040;-81
2021/10/12 11:41:35;;;;;;;2.50;1.33;;;;;;;12.18;nan;100546.59;4978393;28;20045;-81
2021/10/12 11:44:17;;;;;;;1.40;0.95;;;;;;;12.47;nan;100538.69;4960137;28;20037;-81
2021/10/12 11:46:46;;;;;;;1.60;0.95;;;;;;;12.70;nan;100548.56;4968074;28;20042;-80
2021/10/12 11:49:15;;;;;;;1.98;1.15;;;;;;;12.38;nan;100539.81;4989177;28;20056;-81
2021/10/12 11:51:43;;;;;;;1.35;0.90;;;;;;;12.72;nan;100538.78;4977355;28;20626;-82
2021/10/12 11:54:10;;;;;;;5.85;1.23;;;;;;;12.93;nan;100529.28;4977462;28;20050;-81
2021/10/12 11:56:38;;;;;;;1.27;0.70;;;;;;;12.90;nan;100532.03;4955467;28;20038;-81
2021/10/12 11:59:10;;;;;;;1.50;0.93;;;;;;;12.92;nan;100528.41;4973819;28;20053;-80
2021/10/12 12:01:40;;;;;;;1.98;1.00;;;;;;;12.92;nan;100524.88;4973894;28;20042;-80